Time;durP1;ratioP1;P1;durP2;ratioP2;P2;SDS_P1;SDS_P2;PMS_P1;PMS_P2;Temp;Humidity;BMP_temperature;BMP_pressure;BME280_temperature;BME280_humidity;BME280_pressure;Samples;Min_cycle;Max_cycle;Signal;HPM_P1;HPM_P2
2022/07/10 00:00:36;;;;;;;7.03;4.72;;;16.90;99.90;;;;;;4933052;29;20034;-69
2022/07/10 00:03:02;;;;;;;4.80;4.40;;;16.80;99.90;;;;;;4934309;29;20038;-70
2022/07/10 00:05:28;;;;;;;4.72;4.30;;;16.90;99.90;;;;;;4933623;29;20032;-70
2022/07/10 00:07:54;;;;;;;5.72;3.95;;;16.90;99.90;;;;;;4926991;29;20130;-71
2022/07/10 00:10:20;;;;;;;4.95;4.03;;;16.90;99.90;;;;;;4937302;29;20036;-70
2022/07/10 00:12:48;;;;;;;4.22;3.88;;;17.00;99.90;;;;;;4935759;29;20036;-70
2022/07/10 00:15:15;;;;;;;6.15;3.72;;;17.00;99.90;;;;;;4930409;29;20020;-71
2022/07/10 00:17:41;;;;;;;4.57;3.92;;;17.00;99.90;;;;;;4931495;29;20031;-70
2022/07/10 00:20:08;;;;;;;3.75;3.45;;;17.00;99.90;;;;;;4937936;29;20032;-72
2022/07/10 00:22:34;;;;;;;5.38;3.28;;;17.10;99.90;;;;;;4931707;29;20043;-70
2022/07/10 00:25:02;;;;;;;4.38;3.97;;;17.10;99.90;;;;;;4937001;29;20035;-70
2022/07/10 00:27:27;;;;;;;4.95;3.97;;;17.10;99.90;;;;;;4938066;29;20027;-71
2022/07/10 00:29:53;;;;;;;3.50;3.22;;;17.10;99.90;;;;;;4937034;29;20032;-71
2022/07/10 00:32:18;;;;;;;3.60;3.30;;;17.10;99.90;;;;;;4937458;29;20032;-70
2022/07/10 00:34:44;;;;;;;4.18;3.35;;;17.10;99.90;;;;;;4936708;29;20036;-71
2022/07/10 00:37:10;;;;;;;5.28;3.33;;;17.20;99.90;;;;;;4938175;29;20032;-71
2022/07/10 00:39:36;;;;;;;5.05;3.70;;;17.20;99.90;;;;;;4933196;29;20114;-69
2022/07/10 00:42:21;;;;;;;3.28;2.95;;;17.20;99.90;;;;;;4936118;29;20616;-71
2022/07/10 00:44:47;;;;;;;3.70;3.40;;;17.20;99.90;;;;;;4935238;29;20056;-69
2022/07/10 00:47:14;;;;;;;3.85;3.15;;;17.20;99.90;;;;;;4937607;29;20499;-70
2022/07/10 00:49:40;;;;;;;5.32;3.58;;;17.20;99.90;;;;;;4936633;29;20032;-70
2022/07/10 00:52:08;;;;;;;3.75;3.45;;;17.20;99.90;;;;;;4936238;29;20485;-71
2022/07/10 00:54:35;;;;;;;5.57;3.25;;;17.20;99.90;;;;;;4934862;29;20485;-68
2022/07/10 00:57:03;;;;;;;5.20;3.95;;;17.20;99.90;;;;;;4936504;29;20090;-70
2022/07/10 00:59:29;;;;;;;4.25;3.35;;;17.20;99.90;;;;;;4939029;29;20039;-70
2022/07/10 01:01:55;;;;;;;4.10;3.70;;;17.10;99.90;;;;;;4936455;29;20054;-70
2022/07/10 01:04:21;;;;;;;3.75;3.45;;;17.10;99.90;;;;;;4936740;29;20330;-70
2022/07/10 01:06:47;;;;;;;3.60;3.30;;;17.10;99.90;;;;;;4936667;29;20534;-71
2022/07/10 01:09:13;;;;;;;3.53;3.22;;;17.10;99.90;;;;;;4935939;29;20404;-71
2022/07/10 01:11:38;;;;;;;3.90;3.50;;;17.00;99.90;;;;;;4932295;29;20106;-69
2022/07/10 01:14:05;;;;;;;5.72;3.50;;;17.00;99.90;;;;;;4935539;29;20023;-70
2022/07/10 01:16:31;;;;;;;3.53;3.22;;;17.00;99.90;;;;;;4934523;29;20530;-72
2022/07/10 01:18:58;;;;;;;3.50;3.08;;;16.90;99.90;;;;;;4934744;29;20028;-70
2022/07/10 01:21:34;;;;;;;3.38;3.17;;;16.80;99.90;;;;;;4937930;29;20389;-71
2022/07/10 01:24:06;;;;;;;3.60;3.30;;;16.80;99.90;;;;;;4936360;29;20027;-69
2022/07/10 01:26:31;;;;;;;3.60;2.95;;;16.70;99.90;;;;;;4935609;29;20107;-71
2022/07/10 01:28:58;;;;;;;4.00;3.60;;;16.60;99.90;;;;;;4934639;29;20263;-70
2022/07/10 01:31:27;;;;;;;4.78;3.60;;;16.60;99.90;;;;;;4935256;29;20503;-70
2022/07/10 01:33:54;;;;;;;3.67;3.38;;;16.60;99.90;;;;;;4935938;29;20038;-70
2022/07/10 01:36:23;;;;;;;3.80;3.47;;;16.50;99.90;;;;;;4935801;29;20098;-70
2022/07/10 01:38:52;;;;;;;3.97;3.13;;;16.50;99.90;;;;;;4934933;29;20040;-70
2022/07/10 01:41:18;;;;;;;10.80;4.90;;;16.50;99.90;;;;;;4936882;29;20110;-71
2022/07/10 01:43:44;;;;;;;6.03;5.30;;;16.50;99.90;;;;;;4935713;29;20493;-71
2022/07/10 01:46:11;;;;;;;8.00;5.20;;;16.50;99.90;;;;;;4930822;29;20062;-71
2022/07/10 01:48:38;;;;;;;7.32;4.68;;;16.50;99.90;;;;;;4936401;29;20131;-68
2022/07/10 01:51:04;;;;;;;8.60;4.95;;;16.50;99.90;;;;;;4936008;29;20103;-70
2022/07/10 01:53:30;;;;;;;5.53;4.45;;;16.50;99.90;;;;;;4934813;29;20177;-70
2022/07/10 01:55:56;;;;;;;5.43;4.22;;;16.50;99.90;;;;;;4935605;29;20094;-69
2022/07/10 01:58:22;;;;;;;6.07;4.45;;;16.50;99.90;;;;;;4936545;29;20031;-70
2022/07/10 02:00:48;;;;;;;4.80;4.28;;;16.50;99.90;;;;;;4935600;29;20119;-70
2022/07/10 02:05:58;;;;;;;6.68;4.65;;;16.40;99.90;;;;;;4934921;29;20126;-71
2022/07/10 02:08:23;;;;;;;6.40;4.70;;;16.30;99.90;;;;;;4935242;29;20450;-70
2022/07/10 02:10:49;;;;;;;4.75;4.32;;;16.30;99.90;;;;;;4935155;29;20034;-71
2022/07/10 02:13:17;;;;;;;5.43;4.93;;;16.30;99.90;;;;;;4934257;29;20040;-70
2022/07/10 02:15:43;;;;;;;6.38;5.32;;;16.30;99.90;;;;;;4918581;29;20039;-70
2022/07/10 02:18:09;;;;;;;7.22;5.50;;;16.20;99.90;;;;;;4932566;29;20040;-71
2022/07/10 02:20:35;;;;;;;6.18;5.57;;;16.20;99.90;;;;;;4931248;29;20039;-71
2022/07/10 02:23:01;;;;;;;6.90;5.50;;;16.20;99.90;;;;;;4935086;29;20593;-71
2022/07/10 02:25:27;;;;;;;7.80;5.28;;;16.30;99.90;;;;;;4934843;29;20035;-71
2022/07/10 02:27:53;;;;;;;5.60;4.78;;;16.20;99.90;;;;;;4934844;29;20107;-70
2022/07/10 02:30:18;;;;;;;6.38;5.38;;;16.20;99.90;;;;;;4935419;29;20103;-71
2022/07/10 02:32:44;;;;;;;9.10;7.50;;;16.10;99.90;;;;;;4934137;29;20465;-69
2022/07/10 02:35:09;;;;;;;11.35;9.10;;;16.10;99.90;;;;;;4927990;29;20438;-71
2022/07/10 02:37:35;;;;;;;11.93;9.23;;;16.10;99.90;;;;;;4935374;29;20035;-70
2022/07/10 02:40:01;;;;;;;11.20;8.65;;;16.20;99.90;;;;;;4934760;29;20616;-70
2022/07/10 02:42:26;;;;;;;12.45;9.65;;;16.20;99.90;;;;;;4935082;29;20094;-69
2022/07/10 02:44:52;;;;;;;16.02;11.40;;;16.10;99.90;;;;;;4930988;29;20422;-69
2022/07/10 02:47:18;;;;;;;13.77;11.35;;;16.20;99.90;;;;;;4929984;29;20027;-69
2022/07/10 02:49:43;;;;;;;15.32;11.95;;;16.20;99.90;;;;;;4934464;29;20095;-67
2022/07/10 02:52:09;;;;;;;13.35;11.95;;;16.30;99.90;;;;;;4931119;29;20055;-71
2022/07/10 02:54:36;;;;;;;13.43;11.88;;;16.30;99.90;;;;;;4935260;29;20031;-71
2022/07/10 02:57:02;;;;;;;15.05;12.32;;;16.30;99.90;;;;;;4934402;29;20023;-70
2022/07/10 02:59:27;;;;;;;12.73;11.23;;;16.30;99.90;;;;;;4935292;29;20027;-71
2022/07/10 03:01:53;;;;;;;17.38;12.20;;;16.30;99.90;;;;;;4933405;29;20032;-72
2022/07/10 03:04:18;;;;;;;15.68;11.82;;;16.30;99.90;;;;;;4934680;29;20119;-71
2022/07/10 03:06:44;;;;;;;12.90;11.45;;;16.30;99.90;;;;;;4934099;29;20036;-69
2022/07/10 03:09:10;;;;;;;15.48;12.45;;;16.30;99.90;;;;;;4929880;29;20078;-71
2022/07/10 03:11:35;;;;;;;12.60;10.90;;;16.30;99.90;;;;;;4934430;29;20091;-69
2022/07/10 03:14:01;;;;;;;11.98;10.73;;;16.20;99.90;;;;;;4931804;29;20094;-71
2022/07/10 03:16:27;;;;;;;12.55;11.25;;;16.30;99.90;;;;;;4930645;29;20111;-70
2022/07/10 03:18:52;;;;;;;12.70;10.77;;;16.30;99.90;;;;;;4933752;29;20042;-70
2022/07/10 03:21:18;;;;;;;12.80;10.52;;;16.30;99.90;;;;;;4934593;29;20458;-71
2022/07/10 03:23:43;;;;;;;13.20;10.85;;;16.30;99.90;;;;;;4934396;29;20023;-70
2022/07/10 03:26:09;;;;;;;15.23;12.20;;;16.30;99.90;;;;;;4930875;29;20032;-71
2022/07/10 03:28:35;;;;;;;12.15;10.35;;;16.30;99.90;;;;;;4934789;29;20477;-71
2022/07/10 03:31:02;;;;;;;10.82;9.73;;;16.20;99.90;;;;;;4933597;29;20036;-69
2022/07/10 03:33:28;;;;;;;11.35;9.95;;;16.10;99.90;;;;;;4934612;29;20389;-72
2022/07/10 03:35:54;;;;;;;10.40;9.07;;;16.20;99.90;;;;;;4933610;29;20027;-70
2022/07/10 03:38:19;;;;;;;11.75;9.98;;;16.10;99.90;;;;;;4932450;29;20047;-70
2022/07/10 03:40:47;;;;;;;10.38;9.18;;;16.20;99.90;;;;;;4933870;29;20035;-69
2022/07/10 03:43:14;;;;;;;13.35;9.57;;;16.10;99.90;;;;;;4928348;29;20032;-71
2022/07/10 03:45:39;;;;;;;11.55;9.93;;;16.00;99.90;;;;;;4927549;29;20032;-71
2022/07/10 03:48:05;;;;;;;14.15;11.05;;;16.00;99.90;;;;;;4933353;29;20032;-70
2022/07/10 03:50:31;;;;;;;14.98;11.13;;;16.00;99.90;;;;;;4933064;29;20156;-69
2022/07/10 03:52:56;;;;;;;13.82;9.95;;;16.00;99.90;;;;;;4933234;29;20051;-72
2022/07/10 03:55:22;;;;;;;13.35;11.10;;;15.90;99.90;;;;;;4934291;29;20031;-70
2022/07/10 03:57:53;;;;;;;11.20;9.75;;;15.80;99.90;;;;;;4933421;29;20491;-70
2022/07/10 04:00:21;;;;;;;13.98;9.98;;;15.80;99.90;;;;;;4931442;29;20039;-71
2022/07/10 04:02:48;;;;;;;13.57;10.98;;;15.80;99.90;;;;;;4933550;29;20034;-73
2022/07/10 04:05:14;;;;;;;10.90;9.75;;;15.80;99.90;;;;;;4933581;29;20043;-70
2022/07/10 04:07:40;;;;;;;13.32;10.30;;;15.80;99.90;;;;;;4934278;29;20047;-71
2022/07/10 04:10:06;;;;;;;11.50;8.52;;;15.90;99.90;;;;;;4932245;29;20751;-70
2022/07/10 04:12:32;;;;;;;10.85;9.20;;;15.80;99.90;;;;;;4933182;29;20055;-71
2022/07/10 04:14:57;;;;;;;11.77;9.32;;;15.80;99.90;;;;;;4933290;29;20103;-71
2022/07/10 04:17:23;;;;;;;11.55;8.35;;;15.80;99.90;;;;;;4920761;29;20059;-70
2022/07/10 04:19:48;;;;;;;11.07;9.40;;;15.90;99.90;;;;;;4931628;29;20042;-70
2022/07/10 04:22:14;;;;;;;9.77;8.15;;;16.00;99.90;;;;;;4933874;29;20036;-71
2022/07/10 04:24:40;;;;;;;11.30;8.75;;;15.90;99.90;;;;;;4934003;29;20039;-71
2022/07/10 04:27:06;;;;;;;9.25;8.25;;;15.90;99.90;;;;;;4933225;29;20182;-71
2022/07/10 04:29:32;;;;;;;9.50;7.90;;;16.00;99.90;;;;;;4933973;29;20052;-70
2022/07/10 04:31:57;;;;;;;11.30;8.40;;;16.00;99.90;;;;;;4930049;29;20461;-71
2022/07/10 04:34:23;;;;;;;11.70;8.52;;;16.00;99.90;;;;;;4933085;29;20096;-70
2022/07/10 04:36:49;;;;;;;13.02;8.90;;;16.00;99.90;;;;;;4932957;29;20520;-68
2022/07/10 04:39:14;;;;;;;11.13;8.73;;;16.00;99.90;;;;;;4934049;29;20043;-70
2022/07/10 04:41:40;;;;;;;9.63;8.63;;;16.00;99.90;;;;;;4932879;29;20082;-70
2022/07/10 04:44:06;;;;;;;11.68;8.10;;;16.10;99.90;;;;;;4932739;29;20032;-70
2022/07/10 04:46:31;;;;;;;9.77;7.15;;;16.10;99.90;;;;;;4931271;29;20030;-70
2022/07/10 04:48:57;;;;;;;8.23;6.20;;;16.10;99.90;;;;;;4932230;29;20035;-70
2022/07/10 04:51:23;;;;;;;10.18;6.70;;;16.10;99.90;;;;;;4932064;29;20397;-70
2022/07/10 04:53:49;;;;;;;8.25;7.13;;;16.10;99.90;;;;;;4932320;29;20051;-69
2022/07/10 04:56:14;;;;;;;8.93;6.72;;;16.10;99.90;;;;;;4936859;29;20695;-69
2022/07/10 04:58:40;;;;;;;8.35;6.03;;;16.30;99.90;;;;;;4942027;29;20433;-70
2022/07/10 05:01:06;;;;;;;8.93;6.22;;;16.40;99.90;;;;;;4936688;29;20551;-70
2022/07/10 05:03:31;;;;;;;8.90;5.45;;;16.40;99.90;;;;;;4935536;29;20106;-70
2022/07/10 05:05:57;;;;;;;6.70;6.00;;;16.30;99.90;;;;;;4934874;29;20032;-71
2022/07/10 05:08:23;;;;;;;8.20;6.88;;;16.40;99.90;;;;;;4933561;29;20036;-71
2022/07/10 05:10:48;;;;;;;7.63;6.53;;;16.40;99.90;;;;;;4937150;29;20039;-69
2022/07/10 05:13:14;;;;;;;9.93;6.43;;;16.40;99.90;;;;;;4918358;29;20082;-71
2022/07/10 05:15:39;;;;;;;11.98;6.93;;;16.40;99.90;;;;;;4936181;29;20035;-71
2022/07/10 05:18:05;;;;;;;8.38;6.10;;;16.40;99.90;;;;;;4925636;29;20039;-71
2022/07/10 05:20:31;;;;;;;9.50;6.78;;;16.40;99.90;;;;;;4936709;29;20044;-71
2022/07/10 05:22:56;;;;;;;10.48;6.10;;;16.40;99.90;;;;;;4926108;29;20083;-70
2022/07/10 05:25:22;;;;;;;11.63;5.90;;;16.40;99.90;;;;;;4936845;29;20023;-72
2022/07/10 05:27:48;;;;;;;6.28;5.03;;;16.40;99.90;;;;;;4936291;29;20038;-69
2022/07/10 05:30:14;;;;;;;5.28;4.13;;;16.40;99.90;;;;;;4936392;29;20091;-71
2022/07/10 05:32:43;;;;;;;9.57;4.43;;;16.40;99.90;;;;;;4935242;29;20032;-70
2022/07/10 05:35:09;;;;;;;5.15;3.78;;;16.50;99.90;;;;;;4936167;29;20194;-71
2022/07/10 05:37:35;;;;;;;7.88;4.00;;;16.60;99.90;;;;;;4935650;29;20496;-69
2022/07/10 05:40:00;;;;;;;7.57;3.40;;;16.60;99.90;;;;;;4932813;29;20036;-71
2022/07/10 05:42:26;;;;;;;6.38;3.63;;;16.50;99.90;;;;;;4936440;29;20110;-71
2022/07/10 05:44:51;;;;;;;5.45;3.05;;;16.60;99.90;;;;;;4932412;29;20470;-69
2022/07/10 05:47:17;;;;;;;4.60;3.17;;;16.50;99.90;;;;;;4935510;29;20039;-71
2022/07/10 05:49:43;;;;;;;6.13;3.60;;;16.50;99.90;;;;;;4936304;29;20083;-71
2022/07/10 05:52:08;;;;;;;4.95;2.97;;;16.40;99.90;;;;;;4934835;29;20031;-71
2022/07/10 05:54:34;;;;;;;7.53;3.50;;;16.40;99.90;;;;;;4936264;29;20473;-73
2022/07/10 05:56:59;;;;;;;5.43;3.03;;;16.50;99.90;;;;;;4932462;29;20036;-70
2022/07/10 05:59:25;;;;;;;5.35;3.08;;;16.50;99.90;;;;;;4939720;29;20044;-71
2022/07/10 06:01:50;;;;;;;7.25;2.97;;;16.60;99.90;;;;;;4935952;29;20598;-69
2022/07/10 06:04:16;;;;;;;5.03;2.55;;;16.80;99.90;;;;;;4936314;29;20035;-71
2022/07/10 06:06:42;;;;;;;5.43;2.70;;;16.80;99.90;;;;;;4935082;29;20389;-70
2022/07/10 06:09:07;;;;;;;6.03;2.28;;;16.90;99.90;;;;;;4934530;29;20477;-71
2022/07/10 06:11:33;;;;;;;4.88;2.33;;;16.90;99.90;;;;;;4936747;29;20032;-71
2022/07/10 06:13:59;;;;;;;3.40;2.15;;;17.00;99.90;;;;;;4933023;29;20043;-70
2022/07/10 06:16:25;;;;;;;7.03;2.25;;;17.00;99.90;;;;;;4926859;29;20038;-71
2022/07/10 06:18:51;;;;;;;3.50;1.85;;;16.90;99.90;;;;;;4931772;29;20027;-70
2022/07/10 06:21:21;;;;;;;3.85;2.22;;;16.80;99.90;;;;;;4934163;29;20393;-71
2022/07/10 06:23:47;;;;;;;4.10;2.05;;;16.90;99.90;;;;;;4935285;29;20111;-73
2022/07/10 06:26:13;;;;;;;5.72;2.38;;;16.90;99.90;;;;;;4935164;29;20717;-71
2022/07/10 06:28:40;;;;;;;7.05;2.92;;;16.90;99.90;;;;;;4934571;29;20449;-71
2022/07/10 06:31:05;;;;;;;4.63;2.45;;;17.00;99.90;;;;;;4934710;29;20036;-71
2022/07/10 06:33:32;;;;;;;5.30;2.70;;;17.00;99.90;;;;;;4934628;29;20058;-71
2022/07/10 06:35:58;;;;;;;5.68;2.17;;;17.00;99.90;;;;;;4933563;29;20032;-70
2022/07/10 06:38:23;;;;;;;7.63;2.40;;;17.10;99.90;;;;;;4931788;29;20489;-70
2022/07/10 06:40:51;;;;;;;2.38;2.17;;;17.10;99.90;;;;;;4935518;29;20424;-70
2022/07/10 06:43:17;;;;;;;6.40;2.45;;;17.20;99.90;;;;;;4934087;29;20674;-70
2022/07/10 06:45:43;;;;;;;3.63;2.13;;;17.30;99.90;;;;;;4931590;29;20115;-70
2022/07/10 06:48:09;;;;;;;6.80;2.53;;;17.20;99.90;;;;;;4927449;29;20055;-71
2022/07/10 06:50:35;;;;;;;4.80;2.17;;;17.30;99.90;;;;;;4935469;29;20040;-70
2022/07/10 06:53:03;;;;;;;6.32;2.05;;;17.50;99.90;;;;;;4933287;29;20054;-70
2022/07/10 06:55:29;;;;;;;11.73;2.20;;;17.60;99.90;;;;;;4933714;29;20028;-70
2022/07/10 06:57:55;;;;;;;2.95;1.95;;;17.60;99.90;;;;;;4934812;29;20054;-68
2022/07/10 07:00:21;;;;;;;5.72;2.20;;;17.60;99.90;;;;;;4934765;29;20040;-72
2022/07/10 07:02:47;;;;;;;8.05;2.03;;;17.80;99.90;;;;;;4935017;29;20023;-73
2022/07/10 07:05:13;;;;;;;5.15;2.00;;;17.80;99.90;;;;;;4928003;29;20111;-71
2022/07/10 07:07:39;;;;;;;5.10;1.70;;;17.70;99.90;;;;;;4934164;29;20102;-67
2022/07/10 07:10:05;;;;;;;4.65;2.05;;;17.60;99.90;;;;;;4934035;29;20176;-71
2022/07/10 07:12:31;;;;;;;3.40;1.95;;;17.60;99.90;;;;;;4934527;29;20440;-69
2022/07/10 07:14:57;;;;;;;2.88;1.90;;;17.70;99.90;;;;;;4930460;29;20115;-68
2022/07/10 07:17:24;;;;;;;6.88;1.85;;;17.80;99.90;;;;;;4933489;29;20110;-69
2022/07/10 07:25:20;;;;;;;4.70;1.73;;;17.60;99.90;;;;;;4923436;29;20050;-71
2022/07/10 07:27:45;;;;;;;3.65;1.60;;;17.60;99.90;;;;;;4934281;29;20031;-70
2022/07/10 07:30:16;;;;;;;6.68;2.05;;;17.60;99.90;;;;;;4933499;29;20040;-69
2022/07/10 07:32:43;;;;;;;6.25;2.00;;;17.50;99.90;;;;;;4933412;29;20024;-69
2022/07/10 07:35:12;;;;;;;7.68;1.83;;;17.40;99.90;;;;;;4933422;29;20031;-70
2022/07/10 07:37:43;;;;;;;4.38;1.83;;;17.40;99.90;;;;;;4931461;29;20047;-71
2022/07/10 07:40:11;;;;;;;8.40;1.90;;;17.20;99.90;;;;;;4933201;29;20036;-70
2022/07/10 07:42:37;;;;;;;2.97;1.85;;;17.20;99.90;;;;;;4934531;29;20140;-71
2022/07/10 07:45:04;;;;;;;5.88;1.58;;;17.20;99.90;;;;;;4928604;29;20029;-69
2022/07/10 07:47:31;;;;;;;4.35;1.75;;;17.20;99.90;;;;;;4934436;29;20125;-71
2022/07/10 07:50:01;;;;;;;5.38;1.73;;;17.20;99.90;;;;;;4933953;29;20163;-68
2022/07/10 07:52:26;;;;;;;2.55;1.60;;;17.20;99.90;;;;;;4931734;29;20103;-70
2022/07/10 07:54:52;;;;;;;6.82;1.80;;;17.20;99.90;;;;;;4933130;29;20036;-70
2022/07/10 07:57:18;;;;;;;5.72;1.90;;;17.20;99.90;;;;;;4932403;29;20024;-69
2022/07/10 07:59:43;;;;;;;8.13;2.20;;;17.30;99.90;;;;;;4937151;29;20039;-70
2022/07/10 08:02:09;;;;;;;4.90;2.00;;;17.40;99.90;;;;;;4933514;29;20043;-69
2022/07/10 08:04:35;;;;;;;5.15;2.00;;;17.40;99.90;;;;;;4932964;29;20042;-70
2022/07/10 08:07:02;;;;;;;4.55;1.95;;;17.50;99.90;;;;;;4933242;29;20167;-68
2022/07/10 08:09:27;;;;;;;4.28;2.03;;;17.50;99.90;;;;;;4933964;29;20035;-71
2022/07/10 08:11:53;;;;;;;5.78;1.55;;;17.50;99.90;;;;;;4929414;29;20024;-71
2022/07/10 08:14:18;;;;;;;6.50;1.75;;;17.60;99.90;;;;;;4932537;29;20552;-72
2022/07/10 08:16:44;;;;;;;4.20;1.70;;;17.70;99.90;;;;;;4931730;29;20068;-71
2022/07/10 08:19:10;;;;;;;2.40;1.50;;;17.80;99.90;;;;;;4933162;29;20040;-71
2022/07/10 08:21:35;;;;;;;4.75;1.50;;;18.10;99.90;;;;;;4933661;29;20116;-71
2022/07/10 08:24:01;;;;;;;4.72;1.92;;;18.30;99.90;;;;;;4931338;29;20023;-68
2022/07/10 08:26:27;;;;;;;3.78;1.70;;;18.20;99.90;;;;;;4931473;29;20043;-70
2022/07/10 08:28:52;;;;;;;2.97;1.30;;;18.20;99.90;;;;;;4934300;29;20094;-70
2022/07/10 08:31:18;;;;;;;3.45;1.50;;;18.20;99.90;;;;;;4937023;29;20107;-70
2022/07/10 08:33:43;;;;;;;2.67;1.40;;;18.40;99.90;;;;;;4936272;29;20480;-70
2022/07/10 08:36:09;;;;;;;9.00;1.70;;;18.70;99.20;;;;;;4931768;29;20040;-71
2022/07/10 08:38:35;;;;;;;3.47;1.45;;;18.90;99.70;;;;;;4937730;29;20042;-71
2022/07/10 08:41:05;;;;;;;5.00;1.70;;;19.00;98.90;;;;;;4936504;29;20024;-69
2022/07/10 08:43:31;;;;;;;3.53;1.90;;;19.00;99.40;;;;;;4937658;29;20111;-71
2022/07/10 08:45:58;;;;;;;6.03;1.77;;;18.80;99.10;;;;;;4928891;29;20028;-70
2022/07/10 08:48:25;;;;;;;2.78;1.33;;;18.60;99.00;;;;;;4936440;29;20415;-69
2022/07/10 08:50:56;;;;;;;5.82;1.67;;;18.40;99.20;;;;;;4937240;29;20028;-69
2022/07/10 08:53:32;;;;;;;4.13;2.08;;;18.40;99.30;;;;;;4935806;29;20132;-69
2022/07/10 08:55:59;;;;;;;5.10;1.33;;;18.40;98.50;;;;;;4937108;29;20055;-71
2022/07/10 08:58:26;;;;;;;2.97;1.38;;;18.40;99.20;;;;;;4938697;29;20027;-70
2022/07/10 09:00:53;;;;;;;5.70;1.30;;;18.50;98.80;;;;;;4937134;29;20028;-71
2022/07/10 09:03:18;;;;;;;5.05;1.48;;;18.50;98.70;;;;;;4932022;29;20042;-71
2022/07/10 09:05:44;;;;;;;8.05;1.45;;;18.60;98.40;;;;;;4936909;29;20393;-70
2022/07/10 09:08:27;;;;;;;5.53;1.67;;;18.50;98.00;;;;;;4936133;29;20115;-71
2022/07/10 09:11:12;;;;;;;3.42;1.40;;;18.60;98.50;;;;;;4935822;29;20397;-71
2022/07/10 09:13:52;;;;;;;5.75;1.23;;;18.80;98.20;;;;;;4936710;29;20035;-71
2022/07/10 09:16:30;;;;;;;2.72;0.95;;;18.80;97.90;;;;;;4933991;29;20027;-70
2022/07/10 09:18:56;;;;;;;7.20;1.60;;;19.00;97.60;;;;;;4933542;29;20067;-70
2022/07/10 09:21:22;;;;;;;2.53;1.23;;;18.90;97.10;;;;;;4933201;29;20027;-70
2022/07/10 09:23:49;;;;;;;2.47;1.30;;;19.00;97.10;;;;;;4935698;29;20020;-71
2022/07/10 09:26:15;;;;;;;4.53;1.08;;;19.10;96.60;;;;;;4935509;29;20039;-71
2022/07/10 09:28:41;;;;;;;7.22;1.50;;;19.20;96.80;;;;;;4936785;29;20114;-71
2022/07/10 09:31:06;;;;;;;4.43;1.40;;;19.10;95.90;;;;;;4934883;29;20537;-71
2022/07/10 09:33:34;;;;;;;4.57;1.20;;;19.20;95.80;;;;;;4935529;29;20083;-71
2022/07/10 09:38:44;;;;;;;3.65;1.33;;;19.80;95.10;;;;;;4933664;29;20036;-69
2022/07/10 09:41:17;;;;;;;3.70;1.15;;;20.00;94.20;;;;;;4937147;29;20034;-68
2022/07/10 09:43:50;;;;;;;4.32;0.90;;;19.90;93.80;;;;;;4936113;29;20046;-68
2022/07/10 09:46:18;;;;;;;3.35;1.00;;;19.80;93.80;;;;;;4934869;29;20106;-68
2022/07/10 09:48:44;;;;;;;1.92;1.17;;;19.80;93.80;;;;;;4936266;29;20043;-69
2022/07/10 09:51:11;;;;;;;5.07;1.25;;;19.60;93.30;;;;;;4934546;29;20039;-68
2022/07/10 09:53:41;;;;;;;4.43;1.15;;;19.70;93.30;;;;;;4934034;29;20047;-68
2022/07/10 09:56:09;;;;;;;5.72;1.33;;;19.90;92.60;;;;;;4932747;29;20060;-68
2022/07/10 09:58:38;;;;;;;5.82;1.20;;;19.80;92.60;;;;;;4937356;29;20469;-69
2022/07/10 10:01:08;;;;;;;3.45;1.27;;;19.70;92.60;;;;;;4935851;29;20042;-69
2022/07/10 10:03:38;;;;;;;4.45;1.17;;;19.70;92.80;;;;;;4936031;29;20036;-69
2022/07/10 10:06:16;;;;;;;3.17;1.00;;;19.80;92.80;;;;;;4929397;29;20040;-68
2022/07/10 10:08:42;;;;;;;5.03;1.38;;;19.80;92.40;;;;;;4935584;29;20568;-69
2022/07/10 10:11:13;;;;;;;3.53;1.48;;;19.80;91.70;;;;;;4932981;29;20107;-68
2022/07/10 10:13:39;;;;;;;4.43;1.60;;;20.00;91.40;;;;;;4933915;29;20470;-72
2022/07/10 10:16:08;;;;;;;2.80;1.00;;;20.10;91.20;;;;;;4935246;29;20079;-76
2022/07/10 10:18:36;;;;;;;5.82;1.17;;;20.30;91.30;;;;;;4932249;29;20433;-71
2022/07/10 10:21:04;;;;;;;4.25;1.17;;;20.30;91.40;;;;;;4935583;29;20106;-72
2022/07/10 10:23:31;;;;;;;4.90;1.15;;;20.20;91.50;;;;;;4934105;29;20027;-74
2022/07/10 10:25:57;;;;;;;4.32;1.25;;;20.30;91.30;;;;;;4934764;29;20028;-70
2022/07/10 10:28:25;;;;;;;2.97;1.00;;;20.30;90.30;;;;;;4931741;29;20035;-71
2022/07/10 10:30:57;;;;;;;2.85;1.13;;;20.50;90.50;;;;;;4935187;29;20537;-72
2022/07/10 10:33:32;;;;;;;4.15;1.27;;;20.70;90.50;;;;;;4934805;29;20028;-72
2022/07/10 10:36:02;;;;;;;4.70;1.67;;;21.00;90.40;;;;;;4934580;29;20028;-77
2022/07/10 10:38:47;;;;;;;;;;;21.10;89.30;;;;;;4935311;29;20033;-80
2022/07/10 10:41:37;;;;;;;2.92;1.27;;;21.10;88.80;;;;;;4932628;29;19933;-74
2022/07/10 10:44:10;;;;;;;4.60;1.58;;;21.10;87.40;;;;;;4932432;29;20028;-74
2022/07/10 10:46:54;;;;;;;3.42;0.98;;;21.20;88.40;;;;;;4934451;29;20489;-72
2022/07/10 10:49:27;;;;;;;4.50;1.10;;;21.50;88.00;;;;;;4934638;29;20040;-71
2022/07/10 10:52:10;;;;;;;5.15;1.10;;;21.70;86.10;;;;;;4934617;29;20423;-74
2022/07/10 10:54:55;;;;;;;4.22;1.00;;;21.40;86.20;;;;;;4934473;29;20227;-72
2022/07/10 10:57:21;;;;;;;2.85;1.30;;;20.80;85.00;;;;;;4934418;29;20040;-70
2022/07/10 10:59:55;;;;;;;2.90;1.00;;;20.70;86.10;;;;;;4921163;29;20059;-69
2022/07/10 11:02:22;;;;;;;7.35;1.17;;;20.80;86.40;;;;;;4930355;29;20042;-70
2022/07/10 11:04:49;;;;;;;4.22;1.00;;;21.20;87.30;;;;;;4935240;29;20027;-71
2022/07/10 11:07:53;;;;;;;2.55;1.17;;;21.50;84.60;;;;;;4934472;29;20040;-69
2022/07/10 11:10:39;;;;;;;3.22;1.52;;;22.00;83.70;;;;;;4933455;29;20118;-71
2022/07/10 11:13:09;;;;;;;3.55;1.38;;;21.60;83.60;;;;;;4933838;29;20028;-70
2022/07/10 11:15:42;;;;;;;4.03;1.30;;;21.30;84.20;;;;;;4932543;29;20038;-70
2022/07/10 11:18:11;;;;;;;2.67;1.17;;;21.10;84.80;;;;;;4928989;29;20036;-69
2022/07/10 11:20:44;;;;;;;3.30;1.05;;;21.20;84.30;;;;;;4934574;29;20149;-72
2022/07/10 11:23:44;;;;;;;3.20;1.30;;;21.50;82.70;;;;;;4934180;29;20454;-69
2022/07/10 11:26:16;;;;;;;3.97;0.98;;;21.50;81.10;;;;;;4929355;29;20098;-69
2022/07/10 11:29:04;;;;;;;3.38;1.30;;;21.30;80.90;;;;;;4931960;29;20059;-69
2022/07/10 11:31:34;;;;;;;3.85;1.30;;;20.80;82.90;;;;;;4933935;29;20027;-70
2022/07/10 11:34:00;;;;;;;5.78;1.20;;;20.40;83.60;;;;;;4927595;28;20027;-70
2022/07/10 11:36:31;;;;;;;2.85;0.98;;;20.20;84.50;;;;;;4928483;29;20032;-72
2022/07/10 11:39:05;;;;;;;3.15;1.25;;;20.40;85.00;;;;;;4933632;29;20086;-71
2022/07/10 11:41:31;;;;;;;2.53;1.23;;;20.60;83.30;;;;;;4932645;28;20038;-70
2022/07/10 11:44:02;;;;;;;3.35;1.00;;;20.70;82.80;;;;;;4931455;29;20132;-71
2022/07/10 11:46:33;;;;;;;1.85;0.98;;;21.10;79.10;;;;;;4928348;29;20082;-70
2022/07/10 11:49:03;;;;;;;3.25;0.98;;;21.50;79.20;;;;;;4932009;29;20048;-70
2022/07/10 11:51:30;;;;;;;2.88;1.10;;;21.90;79.10;;;;;;4931975;29;20036;-70
2022/07/10 11:54:02;;;;;;;2.38;0.75;;;22.00;78.60;;;;;;4931085;29;20054;-75
2022/07/10 11:56:32;;;;;;;2.60;1.10;;;22.20;79.10;;;;;;4940858;29;20031;-75
2022/07/10 11:59:03;;;;;;;5.65;2.72;;;22.20;78.10;;;;;;4937773;29;20036;-76
2022/07/10 12:01:34;;;;;;;2.15;1.00;;;22.30;77.40;;;;;;4932237;29;20034;-76
2022/07/10 12:04:04;;;;;;;4.05;1.10;;;22.40;77.60;;;;;;4934647;29;20067;-76
2022/07/10 12:06:31;;;;;;;4.32;1.08;;;22.70;76.50;;;;;;4937849;29;20226;-76
2022/07/10 12:09:04;;;;;;;2.08;0.88;;;23.00;74.00;;;;;;4934483;29;20050;-76
2022/07/10 12:11:30;;;;;;;1.50;0.98;;;23.00;74.10;;;;;;4929974;29;20028;-74
2022/07/10 12:14:14;;;;;;;2.00;0.90;;;23.00;76.00;;;;;;4933222;29;20029;-73
2022/07/10 12:16:42;;;;;;;4.35;1.10;;;23.00;74.40;;;;;;4931738;29;20087;-80
2022/07/10 12:19:08;;;;;;;2.25;0.80;;;22.50;74.10;;;;;;4937863;29;20035;-76
2022/07/10 12:21:34;;;;;;;2.78;0.85;;;22.70;74.90;;;;;;4932666;29;20783;-79
2022/07/10 12:24:03;;;;;;;2.15;0.90;;;23.10;73.70;;;;;;4933391;29;20083;-75
2022/07/10 12:26:34;;;;;;;1.92;0.77;;;23.60;70.00;;;;;;4931891;29;20039;-77
2022/07/10 12:29:00;;;;;;;2.63;1.20;;;23.90;69.90;;;;;;4933897;29;20043;-77
2022/07/10 12:31:29;;;;;;;3.00;1.20;;;23.70;69.80;;;;;;4937538;29;20035;-80
2022/07/10 12:34:03;;;;;;;3.97;0.85;;;23.30;70.00;;;;;;4937347;29;20027;-78
2022/07/10 12:36:53;;;;;;;3.65;1.27;;;22.30;71.10;;;;;;4934073;29;20111;-76
2022/07/10 12:39:21;;;;;;;3.42;0.88;;;21.80;71.60;;;;;;4933955;29;20813;-77
2022/07/10 12:42:02;;;;;;;2.83;0.80;;;21.80;71.80;;;;;;4933014;29;20107;-78
2022/07/10 12:44:30;;;;;;;1.30;0.60;;;21.70;72.50;;;;;;4934501;29;20492;-80
2022/07/10 12:47:08;;;;;;;2.67;1.02;;;22.10;71.80;;;;;;4933852;29;20330;-77
2022/07/10 12:49:52;;;;;;;2.90;0.88;;;22.70;70.30;;;;;;4930609;28;20032;-76
2022/07/10 12:52:32;;;;;;;2.08;0.68;;;23.30;69.90;;;;;;4940319;29;20035;-74
2022/07/10 12:55:19;;;;;;;1.15;0.80;;;23.40;67.60;;;;;;4936619;29;20393;-76
2022/07/10 12:57:53;;;;;;;1.35;1.00;;;23.30;68.60;;;;;;4937167;29;20063;-76
2022/07/10 13:00:31;;;;;;;0.70;0.70;;;23.40;68.00;;;;;;4940695;29;20067;-77